F/V Jeremi Simon — FHAF — position and weather

sailwx.info

Track history (hours):
 
Tides and Currents Weather Stations Pressure Air Temp Water Temp Dewpoint Dewpoint Depression Visibility Wind Speed Wind Dir Waves Ship Positions

F/V Jeremi Simon

Last reported at 2017-May-11 19:35 UTC. Time now 2017-May-22 17:16 UTC.
Position N 46°41' W 001°57'.
Warning: this ship's position is 10 days out of date.

Length 20 m.

Type: Other ship. MMSI: 227415000.

Date/timePositionNaut miles runAvg speedWind from/ knotsBaromVisibWave heightAir tempDewpointWater temp
2017-May-11 19:35N 46°41' W 001°57'110.5
2017-May-11 19:30N 46°40' W 001°57'510.6
2017-May-11 19:00N 46°35' W 001°54'510.6
2017-May-11 18:30N 46°30' W 001°52'510.3
2017-May-11 18:00N 46°26' W 001°46'510.5
2017-May-11 17:30N 46°23' W 001°40'510.5
2017-May-11 17:00N 46°20' W 001°34'510.5
2017-May-11 16:30N 46°18' W 001°27'510.6
2017-May-11 16:00N 46°15' W 001°21'510.1
2017-May-11 15:30N 46°11' W 001°16'2 4.9
2017-May-11 15:00N 46°09' W 001°13'0 0.0
2017-May-11 13:40N 46°09' W 001°13'0 0.0
2017-May-11 13:31N 46°09' W 001°13'0 0.0
2017-May-11 13:01N 46°09' W 001°13'  
Track history (hours):
 
Tides and Currents Weather Stations Pressure Air Temp Water Temp Dewpoint Dewpoint Depression Visibility Wind Speed Wind Dir Waves Ship Positions

F/V Jeremi Simon

Last reported at 2017-May-11 19:35 UTC. Time now 2017-May-22 17:16 UTC.
Position N 46°41' W 001°57'.
Warning: this ship's position is 10 days out of date.

Length 20 m.

Type: Other ship. MMSI: 227415000.

Date/timePositionNaut miles runAvg speedWind from/ knotsBaromVisibWave heightAir tempDewpointWater temp
2017-May-11 19:35N 46°41' W 001°57'110.5
2017-May-11 19:30N 46°40' W 001°57'510.6
2017-May-11 19:00N 46°35' W 001°54'510.6
2017-May-11 18:30N 46°30' W 001°52'510.3
2017-May-11 18:00N 46°26' W 001°46'510.5
2017-May-11 17:30N 46°23' W 001°40'510.5
2017-May-11 17:00N 46°20' W 001°34'510.5
2017-May-11 16:30N 46°18' W 001°27'510.6
2017-May-11 16:00N 46°15' W 001°21'510.1
2017-May-11 15:30N 46°11' W 001°16'2 4.9
2017-May-11 15:00N 46°09' W 001°13'0 0.0
2017-May-11 13:40N 46°09' W 001°13'0 0.0
2017-May-11 13:31N 46°09' W 001°13'0 0.0
2017-May-11 13:01N 46°09' W 001°13'  

Dump ship's entire track history